Air Navigation Services of Czech Republic
Airport: LKCS Updated:  07.02.2023 14:31:32  UTC
 METAR LKCS 07.02. 14:30 ...
METAR LKCS 071430Z AUTO 30003KT 240V010 CAVOK M01/M08 Q1038=